sensor_id;sensor_type;location;lat;lon;timestamp;P1;durP1;ratioP1;P2;durP2;ratioP2
49193;SDS011;35029;50.804;12.866;2023-08-07T00:00:27;2.60;;;2.40;;
49193;SDS011;35029;50.804;12.866;2023-08-07T00:02:52;2.95;;;2.60;;
49193;SDS011;35029;50.804;12.866;2023-08-07T00:05:18;4.68;;;2.47;;
49193;SDS011;35029;50.804;12.866;2023-08-07T00:07:44;2.30;;;2.10;;
49193;SDS011;35029;50.804;12.866;2023-08-07T00:10:10;3.20;;;2.10;;
49193;SDS011;35029;50.804;12.866;2023-08-07T00:12:37;2.45;;;1.88;;
49193;SDS011;35029;50.804;12.866;2023-08-07T00:15:03;1.70;;;1.60;;
49193;SDS011;35029;50.804;12.866;2023-08-07T00:17:29;2.90;;;1.70;;
49193;SDS011;35029;50.804;12.866;2023-08-07T00:19:54;2.28;;;1.80;;
49193;SDS011;35029;50.804;12.866;2023-08-07T00:22:20;1.92;;;1.83;;
49193;SDS011;35029;50.804;12.866;2023-08-07T00:24:45;8.18;;;2.03;;
49193;SDS011;35029;50.804;12.866;2023-08-07T00:27:11;2.47;;;1.95;;
49193;SDS011;35029;50.804;12.866;2023-08-07T00:29:37;2.22;;;2.03;;
49193;SDS011;35029;50.804;12.866;2023-08-07T00:32:04;2.80;;;1.60;;
49193;SDS011;35029;50.804;12.866;2023-08-07T00:34:30;1.50;;;1.40;;
49193;SDS011;35029;50.804;12.866;2023-08-07T00:36:55;2.55;;;1.50;;
49193;SDS011;35029;50.804;12.866;2023-08-07T00:39:21;1.65;;;1.55;;
49193;SDS011;35029;50.804;12.866;2023-08-07T00:41:47;2.50;;;1.60;;
49193;SDS011;35029;50.804;12.866;2023-08-07T00:44:12;1.83;;;1.73;;
49193;SDS011;35029;50.804;12.866;2023-08-07T00:46:39;3.05;;;1.58;;
49193;SDS011;35029;50.804;12.866;2023-08-07T00:49:06;2.10;;;1.17;;
49193;SDS011;35029;50.804;12.866;2023-08-07T00:51:33;3.22;;;1.38;;
49193;SDS011;35029;50.804;12.866;2023-08-07T00:53:59;1.40;;;1.30;;
49193;SDS011;35029;50.804;12.866;2023-08-07T00:56:28;1.40;;;1.30;;
49193;SDS011;35029;50.804;12.866;2023-08-07T00:58:55;1.92;;;1.50;;
49193;SDS011;35029;50.804;12.866;2023-08-07T01:01:22;1.95;;;1.30;;
49193;SDS011;35029;50.804;12.866;2023-08-07T01:03:48;1.60;;;1.48;;
49193;SDS011;35029;50.804;12.866;2023-08-07T01:06:14;1.55;;;1.25;;
49193;SDS011;35029;50.804;12.866;2023-08-07T01:08:40;1.58;;;1.27;;
49193;SDS011;35029;50.804;12.866;2023-08-07T01:17:15;4.03;;;1.80;;
49193;SDS011;35029;50.804;12.866;2023-08-07T01:19:42;2.20;;;1.58;;
49193;SDS011;35029;50.804;12.866;2023-08-07T01:22:08;1.73;;;1.63;;
49193;SDS011;35029;50.804;12.866;2023-08-07T01:24:39;1.73;;;1.53;;
49193;SDS011;35029;50.804;12.866;2023-08-07T01:32:29;1.88;;;1.70;;
49193;SDS011;35029;50.804;12.866;2023-08-07T01:34:57;1.10;;;1.00;;
49193;SDS011;35029;50.804;12.866;2023-08-07T01:37:24;1.40;;;1.30;;
49193;SDS011;35029;50.804;12.866;2023-08-07T01:39:51;1.83;;;1.27;;
49193;SDS011;35029;50.804;12.866;2023-08-07T01:42:19;3.67;;;1.63;;
49193;SDS011;35029;50.804;12.866;2023-08-07T01:44:44;1.95;;;1.50;;
49193;SDS011;35029;50.804;12.866;2023-08-07T01:47:10;1.55;;;1.45;;
49193;SDS011;35029;50.804;12.866;2023-08-07T01:49:35;1.73;;;1.50;;
49193;SDS011;35029;50.804;12.866;2023-08-07T01:52:04;1.90;;;1.48;;
49193;SDS011;35029;50.804;12.866;2023-08-07T01:54:31;2.28;;;1.48;;
49193;SDS011;35029;50.804;12.866;2023-08-07T01:56:57;2.15;;;1.50;;
49193;SDS011;35029;50.804;12.866;2023-08-07T01:59:22;1.60;;;1.50;;
49193;SDS011;35029;50.804;12.866;2023-08-07T02:01:48;2.22;;;1.88;;
49193;SDS011;35029;50.804;12.866;2023-08-07T02:04:14;2.15;;;1.70;;
49193;SDS011;35029;50.804;12.866;2023-08-07T02:06:39;3.22;;;2.20;;
49193;SDS011;35029;50.804;12.866;2023-08-07T02:09:05;6.82;;;2.45;;
49193;SDS011;35029;50.804;12.866;2023-08-07T02:11:30;2.42;;;2.15;;
49193;SDS011;35029;50.804;12.866;2023-08-07T02:13:56;4.35;;;2.10;;
49193;SDS011;35029;50.804;12.866;2023-08-07T02:16:21;3.47;;;2.38;;
49193;SDS011;35029;50.804;12.866;2023-08-07T02:18:47;4.03;;;2.38;;
49193;SDS011;35029;50.804;12.866;2023-08-07T02:21:12;2.42;;;2.22;;
49193;SDS011;35029;50.804;12.866;2023-08-07T02:23:38;2.72;;;2.40;;
49193;SDS011;35029;50.804;12.866;2023-08-07T02:26:04;3.03;;;2.72;;
49193;SDS011;35029;50.804;12.866;2023-08-07T02:28:29;2.78;;;2.50;;
49193;SDS011;35029;50.804;12.866;2023-08-07T02:30:55;2.75;;;2.55;;
49193;SDS011;35029;50.804;12.866;2023-08-07T02:33:20;3.42;;;2.67;;
49193;SDS011;35029;50.804;12.866;2023-08-07T02:35:46;3.33;;;2.95;;
49193;SDS011;35029;50.804;12.866;2023-08-07T02:38:11;4.05;;;3.08;;
49193;SDS011;35029;50.804;12.866;2023-08-07T02:40:37;5.82;;;2.88;;
49193;SDS011;35029;50.804;12.866;2023-08-07T02:43:03;3.30;;;3.00;;
49193;SDS011;35029;50.804;12.866;2023-08-07T02:45:28;3.45;;;2.92;;
49193;SDS011;35029;50.804;12.866;2023-08-07T02:47:54;3.50;;;2.90;;
49193;SDS011;35029;50.804;12.866;2023-08-07T02:50:19;4.00;;;2.85;;
49193;SDS011;35029;50.804;12.866;2023-08-07T02:52:45;2.78;;;2.30;;
49193;SDS011;35029;50.804;12.866;2023-08-07T02:55:11;2.95;;;2.63;;
49193;SDS011;35029;50.804;12.866;2023-08-07T02:57:36;2.78;;;2.58;;
49193;SDS011;35029;50.804;12.866;2023-08-07T03:00:02;5.30;;;2.78;;
49193;SDS011;35029;50.804;12.866;2023-08-07T03:02:28;7.20;;;2.70;;
49193;SDS011;35029;50.804;12.866;2023-08-07T03:04:53;2.90;;;2.70;;
49193;SDS011;35029;50.804;12.866;2023-08-07T03:07:19;2.85;;;2.65;;
49193;SDS011;35029;50.804;12.866;2023-08-07T03:09:45;5.72;;;2.70;;
49193;SDS011;35029;50.804;12.866;2023-08-07T03:12:12;2.83;;;2.55;;
49193;SDS011;35029;50.804;12.866;2023-08-07T03:14:38;3.60;;;2.22;;
49193;SDS011;35029;50.804;12.866;2023-08-07T03:17:03;3.85;;;2.97;;
49193;SDS011;35029;50.804;12.866;2023-08-07T03:19:29;3.20;;;2.88;;
49193;SDS011;35029;50.804;12.866;2023-08-07T03:21:55;4.25;;;2.97;;
49193;SDS011;35029;50.804;12.866;2023-08-07T03:24:20;3.08;;;2.67;;
49193;SDS011;35029;50.804;12.866;2023-08-07T03:26:46;4.60;;;3.08;;
49193;SDS011;35029;50.804;12.866;2023-08-07T03:29:12;4.18;;;3.45;;
49193;SDS011;35029;50.804;12.866;2023-08-07T03:31:38;8.55;;;4.03;;
49193;SDS011;35029;50.804;12.866;2023-08-07T03:34:04;3.00;;;2.80;;
49193;SDS011;35029;50.804;12.866;2023-08-07T03:36:30;4.32;;;3.63;;
49193;SDS011;35029;50.804;12.866;2023-08-07T03:38:55;10.32;;;4.43;;
49193;SDS011;35029;50.804;12.866;2023-08-07T03:41:21;3.83;;;3.35;;
49193;SDS011;35029;50.804;12.866;2023-08-07T03:43:47;3.45;;;3.15;;
49193;SDS011;35029;50.804;12.866;2023-08-07T03:46:12;4.03;;;3.65;;
49193;SDS011;35029;50.804;12.866;2023-08-07T03:48:38;4.47;;;3.80;;
49193;SDS011;35029;50.804;12.866;2023-08-07T03:51:04;4.13;;;3.25;;
49193;SDS011;35029;50.804;12.866;2023-08-07T03:53:35;4.13;;;3.20;;
49193;SDS011;35029;50.804;12.866;2023-08-07T03:56:01;3.95;;;3.38;;
49193;SDS011;35029;50.804;12.866;2023-08-07T03:58:27;4.25;;;3.22;;
49193;SDS011;35029;50.804;12.866;2023-08-07T04:00:53;6.85;;;4.32;;
49193;SDS011;35029;50.804;12.866;2023-08-07T04:03:21;3.33;;;3.08;;
49193;SDS011;35029;50.804;12.866;2023-08-07T04:05:47;8.80;;;3.50;;
49193;SDS011;35029;50.804;12.866;2023-08-07T04:08:17;3.97;;;3.55;;
49193;SDS011;35029;50.804;12.866;2023-08-07T04:10:43;5.20;;;3.83;;
49193;SDS011;35029;50.804;12.866;2023-08-07T04:13:09;4.95;;;3.45;;
49193;SDS011;35029;50.804;12.866;2023-08-07T04:15:34;3.53;;;3.22;;
49193;SDS011;35029;50.804;12.866;2023-08-07T04:18:00;3.63;;;3.33;;
49193;SDS011;35029;50.804;12.866;2023-08-07T04:20:26;6.22;;;3.60;;
49193;SDS011;35029;50.804;12.866;2023-08-07T04:22:53;3.55;;;3.20;;
49193;SDS011;35029;50.804;12.866;2023-08-07T04:25:19;5.00;;;2.97;;
49193;SDS011;35029;50.804;12.866;2023-08-07T04:27:44;3.15;;;2.85;;
49193;SDS011;35029;50.804;12.866;2023-08-07T04:30:10;4.10;;;3.22;;
49193;SDS011;35029;50.804;12.866;2023-08-07T04:32:36;3.00;;;2.70;;
49193;SDS011;35029;50.804;12.866;2023-08-07T04:35:01;4.25;;;3.22;;
49193;SDS011;35029;50.804;12.866;2023-08-07T04:37:27;3.85;;;2.60;;
49193;SDS011;35029;50.804;12.866;2023-08-07T04:39:56;3.05;;;2.75;;
49193;SDS011;35029;50.804;12.866;2023-08-07T04:42:22;2.50;;;2.30;;
49193;SDS011;35029;50.804;12.866;2023-08-07T04:44:47;2.88;;;2.50;;
49193;SDS011;35029;50.804;12.866;2023-08-07T04:47:13;3.17;;;2.40;;
49193;SDS011;35029;50.804;12.866;2023-08-07T04:49:38;5.07;;;2.75;;
49193;SDS011;35029;50.804;12.866;2023-08-07T04:52:04;4.60;;;2.80;;
49193;SDS011;35029;50.804;12.866;2023-08-07T04:54:30;5.32;;;2.80;;
49193;SDS011;35029;50.804;12.866;2023-08-07T04:56:55;2.95;;;2.50;;
49193;SDS011;35029;50.804;12.866;2023-08-07T04:59:21;4.75;;;2.72;;
49193;SDS011;35029;50.804;12.866;2023-08-07T05:01:46;3.78;;;2.35;;
49193;SDS011;35029;50.804;12.866;2023-08-07T05:04:12;5.95;;;2.40;;
49193;SDS011;35029;50.804;12.866;2023-08-07T05:06:37;2.53;;;2.22;;
49193;SDS011;35029;50.804;12.866;2023-08-07T05:09:03;4.45;;;2.22;;
49193;SDS011;35029;50.804;12.866;2023-08-07T05:11:29;6.28;;;2.30;;
49193;SDS011;35029;50.804;12.866;2023-08-07T05:13:54;3.58;;;2.13;;
49193;SDS011;35029;50.804;12.866;2023-08-07T05:16:20;4.35;;;1.92;;
49193;SDS011;35029;50.804;12.866;2023-08-07T05:18:46;2.20;;;1.85;;
49193;SDS011;35029;50.804;12.866;2023-08-07T05:21:11;5.18;;;1.90;;
49193;SDS011;35029;50.804;12.866;2023-08-07T05:23:37;1.70;;;1.55;;
49193;SDS011;35029;50.804;12.866;2023-08-07T05:26:02;2.17;;;1.75;;
49193;SDS011;35029;50.804;12.866;2023-08-07T05:28:28;14.65;;;1.95;;
49193;SDS011;35029;50.804;12.866;2023-08-07T05:30:54;4.10;;;1.88;;
49193;SDS011;35029;50.804;12.866;2023-08-07T05:33:19;2.53;;;2.10;;
49193;SDS011;35029;50.804;12.866;2023-08-07T05:35:45;4.47;;;2.28;;
49193;SDS011;35029;50.804;12.866;2023-08-07T05:38:11;2.53;;;1.85;;
49193;SDS011;35029;50.804;12.866;2023-08-07T05:40:36;1.98;;;1.77;;
49193;SDS011;35029;50.804;12.866;2023-08-07T05:43:02;3.33;;;1.52;;
49193;SDS011;35029;50.804;12.866;2023-08-07T05:45:28;2.00;;;1.80;;
49193;SDS011;35029;50.804;12.866;2023-08-07T05:47:53;2.00;;;1.80;;
49193;SDS011;35029;50.804;12.866;2023-08-07T05:50:19;2.38;;;1.85;;
49193;SDS011;35029;50.804;12.866;2023-08-07T05:52:44;2.42;;;1.95;;
49193;SDS011;35029;50.804;12.866;2023-08-07T05:55:10;1.90;;;1.70;;
49193;SDS011;35029;50.804;12.866;2023-08-07T05:57:36;2.70;;;1.40;;
49193;SDS011;35029;50.804;12.866;2023-08-07T06:00:02;1.50;;;1.40;;
49193;SDS011;35029;50.804;12.866;2023-08-07T06:02:37;1.83;;;1.60;;
49193;SDS011;35029;50.804;12.866;2023-08-07T06:05:03;2.58;;;1.60;;
49193;SDS011;35029;50.804;12.866;2023-08-07T06:07:29;1.48;;;1.35;;
49193;SDS011;35029;50.804;12.866;2023-08-07T06:09:54;2.10;;;1.55;;
49193;SDS011;35029;50.804;12.866;2023-08-07T06:12:21;3.38;;;1.33;;
49193;SDS011;35029;50.804;12.866;2023-08-07T06:14:46;1.75;;;1.25;;
49193;SDS011;35029;50.804;12.866;2023-08-07T06:17:12;3.05;;;1.33;;
49193;SDS011;35029;50.804;12.866;2023-08-07T06:19:37;1.20;;;1.08;;
49193;SDS011;35029;50.804;12.866;2023-08-07T06:22:03;3.30;;;1.10;;
49193;SDS011;35029;50.804;12.866;2023-08-07T06:24:29;2.15;;;1.20;;
49193;SDS011;35029;50.804;12.866;2023-08-07T06:26:55;1.40;;;1.05;;
49193;SDS011;35029;50.804;12.866;2023-08-07T06:29:20;1.67;;;1.08;;
49193;SDS011;35029;50.804;12.866;2023-08-07T06:31:46;1.40;;;0.90;;
49193;SDS011;35029;50.804;12.866;2023-08-07T06:34:11;2.28;;;1.10;;
49193;SDS011;35029;50.804;12.866;2023-08-07T06:36:37;1.73;;;0.93;;
49193;SDS011;35029;50.804;12.866;2023-08-07T06:39:03;0.93;;;0.85;;
49193;SDS011;35029;50.804;12.866;2023-08-07T06:41:29;3.38;;;1.02;;
49193;SDS011;35029;50.804;12.866;2023-08-07T06:43:54;1.20;;;1.00;;
49193;SDS011;35029;50.804;12.866;2023-08-07T06:46:20;0.80;;;0.80;;
49193;SDS011;35029;50.804;12.866;2023-08-07T06:48:49;1.38;;;1.05;;
49193;SDS011;35029;50.804;12.866;2023-08-07T06:51:15;1.40;;;1.30;;
49193;SDS011;35029;50.804;12.866;2023-08-07T06:53:41;1.20;;;1.10;;
49193;SDS011;35029;50.804;12.866;2023-08-07T06:56:07;1.17;;;1.08;;
49193;SDS011;35029;50.804;12.866;2023-08-07T06:58:34;1.98;;;1.10;;
49193;SDS011;35029;50.804;12.866;2023-08-07T07:00:59;1.75;;;1.15;;
49193;SDS011;35029;50.804;12.866;2023-08-07T07:03:25;1.80;;;1.00;;
49193;SDS011;35029;50.804;12.866;2023-08-07T07:05:50;1.25;;;1.15;;
49193;SDS011;35029;50.804;12.866;2023-08-07T07:08:16;5.10;;;1.10;;
49193;SDS011;35029;50.804;12.866;2023-08-07T07:10:41;3.00;;;1.15;;
49193;SDS011;35029;50.804;12.866;2023-08-07T07:13:07;1.10;;;1.00;;
49193;SDS011;35029;50.804;12.866;2023-08-07T07:15:34;0.90;;;0.90;;
49193;SDS011;35029;50.804;12.866;2023-08-07T07:18:01;2.20;;;1.33;;
49193;SDS011;35029;50.804;12.866;2023-08-07T07:20:27;5.57;;;1.73;;
49193;SDS011;35029;50.804;12.866;2023-08-07T07:22:52;1.38;;;1.25;;
49193;SDS011;35029;50.804;12.866;2023-08-07T07:25:18;2.15;;;1.20;;
49193;SDS011;35029;50.804;12.866;2023-08-07T07:27:44;1.58;;;1.33;;
49193;SDS011;35029;50.804;12.866;2023-08-07T07:30:09;3.08;;;1.10;;
49193;SDS011;35029;50.804;12.866;2023-08-07T07:32:35;2.05;;;1.30;;
49193;SDS011;35029;50.804;12.866;2023-08-07T07:35:01;1.30;;;1.13;;
49193;SDS011;35029;50.804;12.866;2023-08-07T07:37:27;1.45;;;1.25;;
49193;SDS011;35029;50.804;12.866;2023-08-07T07:39:53;1.48;;;1.20;;
49193;SDS011;35029;50.804;12.866;2023-08-07T07:42:18;1.30;;;1.20;;
49193;SDS011;35029;50.804;12.866;2023-08-07T07:44:44;1.45;;;1.30;;
49193;SDS011;35029;50.804;12.866;2023-08-07T07:47:10;2.03;;;1.33;;
49193;SDS011;35029;50.804;12.866;2023-08-07T07:49:35;2.88;;;1.23;;
49193;SDS011;35029;50.804;12.866;2023-08-07T07:52:01;1.17;;;1.08;;
49193;SDS011;35029;50.804;12.866;2023-08-07T07:54:27;3.83;;;1.15;;
49193;SDS011;35029;50.804;12.866;2023-08-07T07:56:54;4.63;;;1.13;;
49193;SDS011;35029;50.804;12.866;2023-08-07T07:59:20;2.33;;;1.40;;
49193;SDS011;35029;50.804;12.866;2023-08-07T08:01:46;2.13;;;1.23;;
49193;SDS011;35029;50.804;12.866;2023-08-07T08:04:11;1.45;;;1.10;;
49193;SDS011;35029;50.804;12.866;2023-08-07T08:06:37;1.95;;;1.42;;
49193;SDS011;35029;50.804;12.866;2023-08-07T08:09:03;1.73;;;1.50;;
49193;SDS011;35029;50.804;12.866;2023-08-07T08:11:32;1.10;;;1.00;;
49193;SDS011;35029;50.804;12.866;2023-08-07T08:13:58;2.05;;;1.40;;
49193;SDS011;35029;50.804;12.866;2023-08-07T08:16:24;2.42;;;1.67;;
49193;SDS011;35029;50.804;12.866;2023-08-07T08:18:49;1.83;;;1.40;;
49193;SDS011;35029;50.804;12.866;2023-08-07T08:21:15;1.60;;;1.48;;
49193;SDS011;35029;50.804;12.866;2023-08-07T08:23:40;2.40;;;1.70;;
49193;SDS011;35029;50.804;12.866;2023-08-07T08:26:06;1.48;;;1.38;;
49193;SDS011;35029;50.804;12.866;2023-08-07T08:28:32;2.47;;;1.60;;
49193;SDS011;35029;50.804;12.866;2023-08-07T08:30:57;2.97;;;1.52;;
49193;SDS011;35029;50.804;12.866;2023-08-07T08:33:23;1.63;;;1.52;;
49193;SDS011;35029;50.804;12.866;2023-08-07T08:35:50;2.83;;;1.90;;
49193;SDS011;35029;50.804;12.866;2023-08-07T08:38:17;1.60;;;1.50;;
49193;SDS011;35029;50.804;12.866;2023-08-07T08:40:45;3.30;;;1.70;;
49193;SDS011;35029;50.804;12.866;2023-08-07T08:43:12;3.42;;;1.95;;
49193;SDS011;35029;50.804;12.866;2023-08-07T08:45:37;4.78;;;1.80;;
49193;SDS011;35029;50.804;12.866;2023-08-07T08:48:06;1.52;;;1.42;;
49193;SDS011;35029;50.804;12.866;2023-08-07T08:50:33;1.80;;;1.67;;
49193;SDS011;35029;50.804;12.866;2023-08-07T08:53:01;1.50;;;1.40;;
49193;SDS011;35029;50.804;12.866;2023-08-07T08:58:28;3.47;;;1.83;;
49193;SDS011;35029;50.804;12.866;2023-08-07T09:00:54;2.08;;;1.90;;
49193;SDS011;35029;50.804;12.866;2023-08-07T09:03:19;3.00;;;2.28;;
49193;SDS011;35029;50.804;12.866;2023-08-07T09:05:46;3.10;;;1.88;;
49193;SDS011;35029;50.804;12.866;2023-08-07T09:08:12;3.55;;;2.00;;
49193;SDS011;35029;50.804;12.866;2023-08-07T09:10:38;1.85;;;1.58;;
49193;SDS011;35029;50.804;12.866;2023-08-07T09:13:04;3.53;;;1.95;;
49193;SDS011;35029;50.804;12.866;2023-08-07T09:15:36;2.00;;;1.80;;
49193;SDS011;35029;50.804;12.866;2023-08-07T09:18:09;2.53;;;2.33;;
49193;SDS011;35029;50.804;12.866;2023-08-07T09:20:36;2.88;;;1.95;;
49193;SDS011;35029;50.804;12.866;2023-08-07T09:23:06;5.32;;;1.80;;
49193;SDS011;35029;50.804;12.866;2023-08-07T09:25:32;1.63;;;1.52;;
49193;SDS011;35029;50.804;12.866;2023-08-07T09:28:02;1.60;;;1.48;;
49193;SDS011;35029;50.804;12.866;2023-08-07T09:30:32;2.20;;;1.60;;
49193;SDS011;35029;50.804;12.866;2023-08-07T09:33:00;1.67;;;1.58;;
49193;SDS011;35029;50.804;12.866;2023-08-07T09:35:27;1.60;;;1.50;;
49193;SDS011;35029;50.804;12.866;2023-08-07T09:37:59;2.88;;;1.73;;
49193;SDS011;35029;50.804;12.866;2023-08-07T09:40:26;2.00;;;1.80;;
49193;SDS011;35029;50.804;12.866;2023-08-07T09:42:53;3.25;;;1.80;;
49193;SDS011;35029;50.804;12.866;2023-08-07T09:45:20;1.70;;;1.60;;
49193;SDS011;35029;50.804;12.866;2023-08-07T09:47:59;1.52;;;1.42;;
49193;SDS011;35029;50.804;12.866;2023-08-07T09:50:27;4.05;;;1.38;;
49193;SDS011;35029;50.804;12.866;2023-08-07T09:52:53;2.42;;;1.45;;
49193;SDS011;35029;50.804;12.866;2023-08-07T09:55:22;1.65;;;1.35;;
49193;SDS011;35029;50.804;12.866;2023-08-07T09:57:48;1.60;;;1.30;;
49193;SDS011;35029;50.804;12.866;2023-08-07T10:00:14;1.90;;;1.35;;
49193;SDS011;35029;50.804;12.866;2023-08-07T10:02:41;2.90;;;1.80;;
49193;SDS011;35029;50.804;12.866;2023-08-07T10:05:10;1.25;;;1.15;;
49193;SDS011;35029;50.804;12.866;2023-08-07T10:07:53;1.88;;;1.30;;
49193;SDS011;35029;50.804;12.866;2023-08-07T10:10:20;1.52;;;1.38;;
49193;SDS011;35029;50.804;12.866;2023-08-07T10:12:46;1.83;;;1.25;;
49193;SDS011;35029;50.804;12.866;2023-08-07T10:15:14;3.53;;;1.05;;
49193;SDS011;35029;50.804;12.866;2023-08-07T10:17:40;1.42;;;1.20;;
49193;SDS011;35029;50.804;12.866;2023-08-07T10:20:06;1.88;;;1.10;;
49193;SDS011;35029;50.804;12.866;2023-08-07T10:22:33;1.10;;;1.00;;
49193;SDS011;35029;50.804;12.866;2023-08-07T10:25:02;2.50;;;1.10;;
49193;SDS011;35029;50.804;12.866;2023-08-07T10:27:29;1.17;;;1.13;;
49193;SDS011;35029;50.804;12.866;2023-08-07T10:29:58;3.30;;;1.05;;
49193;SDS011;35029;50.804;12.866;2023-08-07T10:32:27;1.02;;;0.90;;
49193;SDS011;35029;50.804;12.866;2023-08-07T10:34:53;1.25;;;1.15;;
49193;SDS011;35029;50.804;12.866;2023-08-07T10:37:32;2.45;;;0.98;;
49193;SDS011;35029;50.804;12.866;2023-08-07T10:40:11;0.90;;;0.90;;
49193;SDS011;35029;50.804;12.866;2023-08-07T10:45:24;1.88;;;1.15;;
49193;SDS011;35029;50.804;12.866;2023-08-07T10:50:30;2.80;;;1.20;;
49193;SDS011;35029;50.804;12.866;2023-08-07T10:52:59;1.00;;;1.00;;
49193;SDS011;35029;50.804;12.866;2023-08-07T10:55:25;1.13;;;1.10;;
49193;SDS011;35029;50.804;12.866;2023-08-07T10:57:52;1.25;;;0.90;;
49193;SDS011;35029;50.804;12.866;2023-08-07T11:00:21;1.10;;;1.00;;
49193;SDS011;35029;50.804;12.866;2023-08-07T11:02:51;1.65;;;1.10;;
49193;SDS011;35029;50.804;12.866;2023-08-07T11:05:17;1.20;;;1.08;;
49193;SDS011;35029;50.804;12.866;2023-08-07T11:07:43;1.05;;;1.00;;
49193;SDS011;35029;50.804;12.866;2023-08-07T11:10:09;3.35;;;1.20;;
49193;SDS011;35029;50.804;12.866;2023-08-07T11:12:39;1.48;;;0.98;;
49193;SDS011;35029;50.804;12.866;2023-08-07T11:15:04;2.90;;;1.20;;
49193;SDS011;35029;50.804;12.866;2023-08-07T11:17:31;3.40;;;1.15;;
49193;SDS011;35029;50.804;12.866;2023-08-07T11:19:56;3.53;;;1.00;;
49193;SDS011;35029;50.804;12.866;2023-08-07T11:22:22;2.35;;;1.40;;
49193;SDS011;35029;50.804;12.866;2023-08-07T11:24:49;1.30;;;1.20;;
49193;SDS011;35029;50.804;12.866;2023-08-07T11:27:16;3.92;;;1.20;;
49193;SDS011;35029;50.804;12.866;2023-08-07T11:29:41;4.75;;;1.10;;
49193;SDS011;35029;50.804;12.866;2023-08-07T11:32:08;3.38;;;1.00;;
49193;SDS011;35029;50.804;12.866;2023-08-07T11:34:33;1.75;;;1.13;;
49193;SDS011;35029;50.804;12.866;2023-08-07T11:37:00;1.73;;;1.10;;
49193;SDS011;35029;50.804;12.866;2023-08-07T11:39:26;1.15;;;1.05;;
49193;SDS011;35029;50.804;12.866;2023-08-07T11:41:51;5.95;;;0.90;;
49193;SDS011;35029;50.804;12.866;2023-08-07T11:44:17;0.50;;;0.50;;
49193;SDS011;35029;50.804;12.866;2023-08-07T11:46:43;0.80;;;0.65;;
49193;SDS011;35029;50.804;12.866;2023-08-07T11:49:12;0.70;;;0.70;;
49193;SDS011;35029;50.804;12.866;2023-08-07T11:51:37;1.98;;;0.80;;
49193;SDS011;35029;50.804;12.866;2023-08-07T11:54:13;0.70;;;0.70;;
49193;SDS011;35029;50.804;12.866;2023-08-07T11:56:41;4.78;;;1.13;;
49193;SDS011;35029;50.804;12.866;2023-08-07T11:59:16;0.63;;;0.63;;
49193;SDS011;35029;50.804;12.866;2023-08-07T12:01:43;1.05;;;0.60;;
49193;SDS011;35029;50.804;12.866;2023-08-07T12:04:11;1.65;;;0.70;;
49193;SDS011;35029;50.804;12.866;2023-08-07T12:06:45;3.28;;;0.90;;
49193;SDS011;35029;50.804;12.866;2023-08-07T12:09:18;3.47;;;1.27;;
49193;SDS011;35029;50.804;12.866;2023-08-07T12:11:44;1.35;;;1.00;;
49193;SDS011;35029;50.804;12.866;2023-08-07T12:14:13;1.88;;;0.90;;
49193;SDS011;35029;50.804;12.866;2023-08-07T12:16:43;1.92;;;0.68;;
49193;SDS011;35029;50.804;12.866;2023-08-07T12:19:12;0.70;;;0.70;;
49193;SDS011;35029;50.804;12.866;2023-08-07T12:21:40;0.73;;;0.70;;
49193;SDS011;35029;50.804;12.866;2023-08-07T12:24:06;3.15;;;0.85;;
49193;SDS011;35029;50.804;12.866;2023-08-07T12:26:34;1.35;;;0.77;;
49193;SDS011;35029;50.804;12.866;2023-08-07T12:28:59;0.60;;;0.60;;
49193;SDS011;35029;50.804;12.866;2023-08-07T12:31:25;0.85;;;0.50;;
49193;SDS011;35029;50.804;12.866;2023-08-07T12:33:51;0.50;;;0.50;;
49193;SDS011;35029;50.804;12.866;2023-08-07T12:36:16;1.95;;;0.68;;
49193;SDS011;35029;50.804;12.866;2023-08-07T12:38:42;0.63;;;0.52;;
49193;SDS011;35029;50.804;12.866;2023-08-07T12:41:07;3.80;;;1.08;;
49193;SDS011;35029;50.804;12.866;2023-08-07T12:43:33;3.50;;;0.80;;
49193;SDS011;35029;50.804;12.866;2023-08-07T12:45:59;0.73;;;0.60;;
49193;SDS011;35029;50.804;12.866;2023-08-07T12:48:25;0.98;;;0.60;;
49193;SDS011;35029;50.804;12.866;2023-08-07T12:50:52;1.95;;;0.85;;
49193;SDS011;35029;50.804;12.866;2023-08-07T12:53:18;1.52;;;0.82;;
49193;SDS011;35029;50.804;12.866;2023-08-07T12:55:43;1.00;;;0.60;;
49193;SDS011;35029;50.804;12.866;2023-08-07T12:58:09;1.00;;;0.80;;
49193;SDS011;35029;50.804;12.866;2023-08-07T13:00:35;0.60;;;0.60;;
49193;SDS011;35029;50.804;12.866;2023-08-07T13:03:02;1.20;;;0.85;;
49193;SDS011;35029;50.804;12.866;2023-08-07T13:05:29;1.48;;;0.70;;
49193;SDS011;35029;50.804;12.866;2023-08-07T13:08:14;0.77;;;0.77;;
49193;SDS011;35029;50.804;12.866;2023-08-07T13:10:40;0.55;;;0.47;;
49193;SDS011;35029;50.804;12.866;2023-08-07T13:13:05;0.95;;;0.57;;
49193;SDS011;35029;50.804;12.866;2023-08-07T13:15:31;0.57;;;0.50;;
49193;SDS011;35029;50.804;12.866;2023-08-07T13:17:57;0.63;;;0.50;;
49193;SDS011;35029;50.804;12.866;2023-08-07T13:20:22;0.63;;;0.50;;
49193;SDS011;35029;50.804;12.866;2023-08-07T13:22:48;0.80;;;0.50;;
49193;SDS011;35029;50.804;12.866;2023-08-07T13:25:14;0.50;;;0.50;;
49193;SDS011;35029;50.804;12.866;2023-08-07T13:27:40;0.50;;;0.50;;
49193;SDS011;35029;50.804;12.866;2023-08-07T13:30:06;0.60;;;0.52;;
49193;SDS011;35029;50.804;12.866;2023-08-07T13:32:32;0.50;;;0.50;;
49193;SDS011;35029;50.804;12.866;2023-08-07T13:34:58;2.65;;;0.75;;
49193;SDS011;35029;50.804;12.866;2023-08-07T13:37:23;0.50;;;0.50;;
49193;SDS011;35029;50.804;12.866;2023-08-07T13:39:49;1.00;;;0.50;;
49193;SDS011;35029;50.804;12.866;2023-08-07T13:42:17;0.90;;;0.60;;
49193;SDS011;35029;50.804;12.866;2023-08-07T13:44:44;0.50;;;0.50;;
49193;SDS011;35029;50.804;12.866;2023-08-07T13:47:10;0.95;;;0.60;;
49193;SDS011;35029;50.804;12.866;2023-08-07T13:49:36;0.60;;;0.60;;
49193;SDS011;35029;50.804;12.866;2023-08-07T13:52:03;0.98;;;0.60;;
49193;SDS011;35029;50.804;12.866;2023-08-07T13:54:29;1.20;;;0.60;;
49193;SDS011;35029;50.804;12.866;2023-08-07T13:56:55;0.63;;;0.60;;
49193;SDS011;35029;50.804;12.866;2023-08-07T13:59:20;0.60;;;0.60;;
49193;SDS011;35029;50.804;12.866;2023-08-07T14:01:47;0.70;;;0.60;;
49193;SDS011;35029;50.804;12.866;2023-08-07T14:04:12;0.75;;;0.60;;
49193;SDS011;35029;50.804;12.866;2023-08-07T14:06:39;1.50;;;0.60;;
49193;SDS011;35029;50.804;12.866;2023-08-07T14:09:06;1.05;;;0.55;;
49193;SDS011;35029;50.804;12.866;2023-08-07T14:11:31;1.30;;;0.77;;
49193;SDS011;35029;50.804;12.866;2023-08-07T14:13:58;0.60;;;0.60;;
49193;SDS011;35029;50.804;12.866;2023-08-07T14:16:24;0.85;;;0.68;;
49193;SDS011;35029;50.804;12.866;2023-08-07T14:18:50;2.00;;;1.05;;
49193;SDS011;35029;50.804;12.866;2023-08-07T14:21:16;1.27;;;0.93;;
49193;SDS011;35029;50.804;12.866;2023-08-07T14:23:42;0.75;;;0.50;;
49193;SDS011;35029;50.804;12.866;2023-08-07T14:26:10;2.13;;;0.93;;
49193;SDS011;35029;50.804;12.866;2023-08-07T14:28:36;1.23;;;0.80;;
49193;SDS011;35029;50.804;12.866;2023-08-07T14:31:05;0.88;;;0.80;;
49193;SDS011;35029;50.804;12.866;2023-08-07T14:33:32;2.55;;;0.90;;
49193;SDS011;35029;50.804;12.866;2023-08-07T14:35:57;1.33;;;0.90;;
49193;SDS011;35029;50.804;12.866;2023-08-07T14:38:24;1.10;;;1.00;;
49193;SDS011;35029;50.804;12.866;2023-08-07T14:40:49;2.03;;;0.85;;
49193;SDS011;35029;50.804;12.866;2023-08-07T14:43:15;3.05;;;0.80;;
49193;SDS011;35029;50.804;12.866;2023-08-07T14:45:40;0.98;;;0.90;;
49193;SDS011;35029;50.804;12.866;2023-08-07T14:48:06;3.95;;;0.88;;